sensor_id;sensor_type;location;lat;lon;timestamp;P1;durP1;ratioP1;P2;durP2;ratioP2
18435;SDS011;9346;52.006;4.720;2022-12-22T00:01:48;37.07;;;17.80;;
18435;SDS011;9346;52.006;4.720;2022-12-22T00:04:33;38.27;;;18.70;;
18435;SDS011;9346;52.006;4.720;2022-12-22T00:07:19;40.73;;;17.67;;
18435;SDS011;9346;52.006;4.720;2022-12-22T00:10:03;42.00;;;19.07;;
18435;SDS011;9346;52.006;4.720;2022-12-22T00:12:48;55.53;;;19.43;;
18435;SDS011;9346;52.006;4.720;2022-12-22T00:15:33;38.57;;;17.60;;
18435;SDS011;9346;52.006;4.720;2022-12-22T00:18:17;39.13;;;18.23;;
18435;SDS011;9346;52.006;4.720;2022-12-22T00:21:02;42.07;;;16.93;;
18435;SDS011;9346;52.006;4.720;2022-12-22T00:23:49;40.20;;;18.80;;
18435;SDS011;9346;52.006;4.720;2022-12-22T00:26:33;42.43;;;18.73;;
18435;SDS011;9346;52.006;4.720;2022-12-22T00:29:18;41.70;;;18.80;;
18435;SDS011;9346;52.006;4.720;2022-12-22T00:32:03;38.50;;;17.83;;
18435;SDS011;9346;52.006;4.720;2022-12-22T00:34:48;37.73;;;18.17;;
18435;SDS011;9346;52.006;4.720;2022-12-22T00:37:34;34.60;;;16.97;;
18435;SDS011;9346;52.006;4.720;2022-12-22T00:40:21;46.30;;;19.60;;
18435;SDS011;9346;52.006;4.720;2022-12-22T00:43:07;45.33;;;20.27;;
18435;SDS011;9346;52.006;4.720;2022-12-22T00:45:51;41.70;;;21.67;;
18435;SDS011;9346;52.006;4.720;2022-12-22T00:48:35;48.13;;;22.30;;
18435;SDS011;9346;52.006;4.720;2022-12-22T00:51:22;41.30;;;19.60;;
18435;SDS011;9346;52.006;4.720;2022-12-22T00:54:07;44.90;;;20.27;;
18435;SDS011;9346;52.006;4.720;2022-12-22T00:56:53;41.23;;;19.23;;
18435;SDS011;9346;52.006;4.720;2022-12-22T00:59:37;43.33;;;20.77;;
18435;SDS011;9346;52.006;4.720;2022-12-22T01:02:22;42.00;;;19.73;;
18435;SDS011;9346;52.006;4.720;2022-12-22T01:05:06;44.87;;;20.73;;
18435;SDS011;9346;52.006;4.720;2022-12-22T01:07:50;45.47;;;19.43;;
18435;SDS011;9346;52.006;4.720;2022-12-22T01:10:35;45.13;;;21.37;;
18435;SDS011;9346;52.006;4.720;2022-12-22T01:13:21;42.50;;;21.77;;
18435;SDS011;9346;52.006;4.720;2022-12-22T01:16:07;44.00;;;21.47;;
18435;SDS011;9346;52.006;4.720;2022-12-22T01:18:52;42.80;;;18.03;;
18435;SDS011;9346;52.006;4.720;2022-12-22T01:21:36;49.57;;;21.97;;
18435;SDS011;9346;52.006;4.720;2022-12-22T01:24:20;45.47;;;20.73;;
18435;SDS011;9346;52.006;4.720;2022-12-22T01:27:04;37.93;;;19.37;;
18435;SDS011;9346;52.006;4.720;2022-12-22T01:29:53;48.17;;;19.80;;
18435;SDS011;9346;52.006;4.720;2022-12-22T01:32:37;42.33;;;20.67;;
18435;SDS011;9346;52.006;4.720;2022-12-22T01:35:26;47.60;;;22.00;;
18435;SDS011;9346;52.006;4.720;2022-12-22T01:38:13;40.17;;;19.83;;
18435;SDS011;9346;52.006;4.720;2022-12-22T01:40:58;42.63;;;20.20;;
18435;SDS011;9346;52.006;4.720;2022-12-22T01:43:42;43.27;;;20.17;;
18435;SDS011;9346;52.006;4.720;2022-12-22T01:46:28;50.57;;;21.23;;
18435;SDS011;9346;52.006;4.720;2022-12-22T01:49:14;41.93;;;20.27;;
18435;SDS011;9346;52.006;4.720;2022-12-22T01:52:03;43.43;;;21.20;;
18435;SDS011;9346;52.006;4.720;2022-12-22T01:54:49;41.47;;;20.10;;
18435;SDS011;9346;52.006;4.720;2022-12-22T01:57:33;47.67;;;20.57;;
18435;SDS011;9346;52.006;4.720;2022-12-22T02:00:20;44.37;;;19.77;;
18435;SDS011;9346;52.006;4.720;2022-12-22T02:03:14;48.07;;;19.80;;
18435;SDS011;9346;52.006;4.720;2022-12-22T02:06:02;47.37;;;20.47;;
18435;SDS011;9346;52.006;4.720;2022-12-22T02:08:54;57.53;;;21.60;;
18435;SDS011;9346;52.006;4.720;2022-12-22T02:11:53;52.77;;;20.87;;
18435;SDS011;9346;52.006;4.720;2022-12-22T02:14:45;48.90;;;20.70;;
18435;SDS011;9346;52.006;4.720;2022-12-22T02:17:39;48.30;;;19.93;;
18435;SDS011;9346;52.006;4.720;2022-12-22T02:20:37;43.13;;;19.47;;
18435;SDS011;9346;52.006;4.720;2022-12-22T02:23:27;46.27;;;19.10;;
18435;SDS011;9346;52.006;4.720;2022-12-22T02:26:28;44.43;;;18.67;;
18435;SDS011;9346;52.006;4.720;2022-12-22T02:29:14;36.10;;;17.70;;
18435;SDS011;9346;52.006;4.720;2022-12-22T02:32:00;43.87;;;18.17;;
18435;SDS011;9346;52.006;4.720;2022-12-22T02:34:45;44.60;;;19.43;;
18435;SDS011;9346;52.006;4.720;2022-12-22T02:37:30;43.43;;;18.33;;
18435;SDS011;9346;52.006;4.720;2022-12-22T02:40:26;54.20;;;20.23;;
18435;SDS011;9346;52.006;4.720;2022-12-22T02:43:18;53.93;;;20.30;;
18435;SDS011;9346;52.006;4.720;2022-12-22T02:46:09;42.93;;;18.70;;
18435;SDS011;9346;52.006;4.720;2022-12-22T02:48:59;52.00;;;20.30;;
18435;SDS011;9346;52.006;4.720;2022-12-22T02:51:49;49.10;;;18.37;;
18435;SDS011;9346;52.006;4.720;2022-12-22T02:54:40;48.87;;;18.27;;
18435;SDS011;9346;52.006;4.720;2022-12-22T02:57:25;48.60;;;20.87;;
18435;SDS011;9346;52.006;4.720;2022-12-22T03:00:11;45.30;;;19.17;;
18435;SDS011;9346;52.006;4.720;2022-12-22T03:02:56;54.63;;;21.10;;
18435;SDS011;9346;52.006;4.720;2022-12-22T03:05:40;44.40;;;18.20;;
18435;SDS011;9346;52.006;4.720;2022-12-22T03:08:24;53.93;;;17.70;;
18435;SDS011;9346;52.006;4.720;2022-12-22T03:11:08;46.43;;;17.80;;
18435;SDS011;9346;52.006;4.720;2022-12-22T03:13:52;55.90;;;20.13;;
18435;SDS011;9346;52.006;4.720;2022-12-22T03:16:37;43.20;;;18.60;;
18435;SDS011;9346;52.006;4.720;2022-12-22T03:19:22;50.80;;;17.77;;
18435;SDS011;9346;52.006;4.720;2022-12-22T03:22:06;47.93;;;18.50;;
18435;SDS011;9346;52.006;4.720;2022-12-22T03:24:49;48.17;;;19.37;;
18435;SDS011;9346;52.006;4.720;2022-12-22T03:27:34;53.57;;;19.80;;
18435;SDS011;9346;52.006;4.720;2022-12-22T03:30:01;41.57;;;16.13;;
18435;SDS011;9346;52.006;4.720;2022-12-22T03:32:29;49.63;;;18.77;;
18435;SDS011;9346;52.006;4.720;2022-12-22T03:34:56;49.13;;;19.70;;
18435;SDS011;9346;52.006;4.720;2022-12-22T03:37:23;57.53;;;20.93;;
18435;SDS011;9346;52.006;4.720;2022-12-22T03:39:50;46.50;;;18.83;;
18435;SDS011;9346;52.006;4.720;2022-12-22T03:42:17;47.17;;;17.83;;
18435;SDS011;9346;52.006;4.720;2022-12-22T03:45:02;52.87;;;19.83;;
18435;SDS011;9346;52.006;4.720;2022-12-22T03:47:48;55.80;;;18.53;;
18435;SDS011;9346;52.006;4.720;2022-12-22T03:50:15;57.10;;;18.97;;
18435;SDS011;9346;52.006;4.720;2022-12-22T03:52:42;46.77;;;17.80;;
18435;SDS011;9346;52.006;4.720;2022-12-22T03:55:08;46.20;;;18.00;;
18435;SDS011;9346;52.006;4.720;2022-12-22T03:57:35;47.43;;;16.77;;
18435;SDS011;9346;52.006;4.720;2022-12-22T04:00:02;42.30;;;17.33;;
18435;SDS011;9346;52.006;4.720;2022-12-22T04:02:30;45.87;;;17.17;;
18435;SDS011;9346;52.006;4.720;2022-12-22T04:04:58;53.23;;;16.83;;
18435;SDS011;9346;52.006;4.720;2022-12-22T04:07:25;38.50;;;15.53;;
18435;SDS011;9346;52.006;4.720;2022-12-22T04:09:52;43.57;;;16.93;;
18435;SDS011;9346;52.006;4.720;2022-12-22T04:12:36;43.37;;;15.70;;
18435;SDS011;9346;52.006;4.720;2022-12-22T04:15:21;49.87;;;16.30;;
18435;SDS011;9346;52.006;4.720;2022-12-22T04:17:48;52.30;;;16.77;;
18435;SDS011;9346;52.006;4.720;2022-12-22T04:20:17;54.67;;;16.60;;
18435;SDS011;9346;52.006;4.720;2022-12-22T04:22:45;42.50;;;15.30;;
18435;SDS011;9346;52.006;4.720;2022-12-22T04:25:12;50.93;;;17.70;;
18435;SDS011;9346;52.006;4.720;2022-12-22T04:27:40;37.00;;;14.97;;
18435;SDS011;9346;52.006;4.720;2022-12-22T04:30:07;57.17;;;17.97;;
18435;SDS011;9346;52.006;4.720;2022-12-22T04:32:35;48.00;;;15.13;;
18435;SDS011;9346;52.006;4.720;2022-12-22T04:35:02;50.50;;;16.13;;
18435;SDS011;9346;52.006;4.720;2022-12-22T04:37:31;63.93;;;18.77;;
18435;SDS011;9346;52.006;4.720;2022-12-22T04:39:58;49.90;;;15.97;;
18435;SDS011;9346;52.006;4.720;2022-12-22T04:42:25;58.43;;;17.53;;
18435;SDS011;9346;52.006;4.720;2022-12-22T04:44:52;55.93;;;19.70;;
18435;SDS011;9346;52.006;4.720;2022-12-22T04:47:19;61.83;;;18.30;;
18435;SDS011;9346;52.006;4.720;2022-12-22T04:49:46;55.07;;;17.63;;
18435;SDS011;9346;52.006;4.720;2022-12-22T04:52:13;56.10;;;17.07;;
18435;SDS011;9346;52.006;4.720;2022-12-22T04:54:42;51.07;;;17.07;;
18435;SDS011;9346;52.006;4.720;2022-12-22T04:57:09;61.63;;;18.63;;
18435;SDS011;9346;52.006;4.720;2022-12-22T04:59:36;52.03;;;16.30;;
18435;SDS011;9346;52.006;4.720;2022-12-22T05:02:03;57.07;;;18.30;;
18435;SDS011;9346;52.006;4.720;2022-12-22T05:04:40;66.07;;;20.00;;
18435;SDS011;9346;52.006;4.720;2022-12-22T05:07:08;55.87;;;16.77;;
18435;SDS011;9346;52.006;4.720;2022-12-22T05:09:35;57.83;;;17.80;;
18435;SDS011;9346;52.006;4.720;2022-12-22T05:12:04;57.23;;;18.33;;
18435;SDS011;9346;52.006;4.720;2022-12-22T05:14:51;49.60;;;18.17;;
18435;SDS011;9346;52.006;4.720;2022-12-22T05:17:19;45.30;;;15.53;;
18435;SDS011;9346;52.006;4.720;2022-12-22T05:19:46;38.53;;;16.37;;
18435;SDS011;9346;52.006;4.720;2022-12-22T05:22:13;54.20;;;17.63;;
18435;SDS011;9346;52.006;4.720;2022-12-22T05:24:39;55.57;;;19.37;;
18435;SDS011;9346;52.006;4.720;2022-12-22T05:27:09;51.17;;;18.17;;
18435;SDS011;9346;52.006;4.720;2022-12-22T05:29:36;52.47;;;18.00;;
18435;SDS011;9346;52.006;4.720;2022-12-22T05:32:03;45.03;;;14.90;;
18435;SDS011;9346;52.006;4.720;2022-12-22T05:34:30;42.83;;;16.13;;
18435;SDS011;9346;52.006;4.720;2022-12-22T05:36:57;52.43;;;17.97;;
18435;SDS011;9346;52.006;4.720;2022-12-22T05:39:24;44.80;;;15.17;;
18435;SDS011;9346;52.006;4.720;2022-12-22T05:41:51;47.53;;;13.33;;
18435;SDS011;9346;52.006;4.720;2022-12-22T05:44:19;41.17;;;13.50;;
18435;SDS011;9346;52.006;4.720;2022-12-22T05:46:48;44.23;;;13.20;;
18435;SDS011;9346;52.006;4.720;2022-12-22T05:49:16;34.33;;;11.57;;
18435;SDS011;9346;52.006;4.720;2022-12-22T05:51:42;36.10;;;12.33;;
18435;SDS011;9346;52.006;4.720;2022-12-22T05:54:09;41.83;;;12.83;;
18435;SDS011;9346;52.006;4.720;2022-12-22T05:56:37;32.27;;;12.07;;
18435;SDS011;9346;52.006;4.720;2022-12-22T05:59:03;33.50;;;13.40;;
18435;SDS011;9346;52.006;4.720;2022-12-22T06:01:32;39.67;;;13.57;;
18435;SDS011;9346;52.006;4.720;2022-12-22T06:04:00;33.07;;;12.07;;
18435;SDS011;9346;52.006;4.720;2022-12-22T06:06:27;47.47;;;13.10;;
18435;SDS011;9346;52.006;4.720;2022-12-22T06:08:54;37.07;;;12.73;;
18435;SDS011;9346;52.006;4.720;2022-12-22T06:11:21;40.03;;;12.77;;
18435;SDS011;9346;52.006;4.720;2022-12-22T06:13:48;29.20;;;11.90;;
18435;SDS011;9346;52.006;4.720;2022-12-22T06:16:15;37.07;;;12.00;;
18435;SDS011;9346;52.006;4.720;2022-12-22T06:18:43;36.83;;;11.20;;
18435;SDS011;9346;52.006;4.720;2022-12-22T06:21:10;36.40;;;11.97;;
18435;SDS011;9346;52.006;4.720;2022-12-22T06:23:37;41.13;;;11.60;;
18435;SDS011;9346;52.006;4.720;2022-12-22T06:26:04;38.50;;;10.20;;
18435;SDS011;9346;52.006;4.720;2022-12-22T06:28:31;41.30;;;10.93;;
18435;SDS011;9346;52.006;4.720;2022-12-22T06:30:58;32.27;;;10.67;;
18435;SDS011;9346;52.006;4.720;2022-12-22T06:33:25;36.10;;;10.83;;
18435;SDS011;9346;52.006;4.720;2022-12-22T06:35:54;29.30;;;9.83;;
18435;SDS011;9346;52.006;4.720;2022-12-22T06:38:21;34.70;;;10.03;;
18435;SDS011;9346;52.006;4.720;2022-12-22T06:40:48;31.93;;;9.60;;
18435;SDS011;9346;52.006;4.720;2022-12-22T06:43:15;30.30;;;11.50;;
18435;SDS011;9346;52.006;4.720;2022-12-22T06:45:41;38.47;;;11.67;;
18435;SDS011;9346;52.006;4.720;2022-12-22T06:48:09;29.70;;;9.97;;
18435;SDS011;9346;52.006;4.720;2022-12-22T06:50:37;31.03;;;9.53;;
18435;SDS011;9346;52.006;4.720;2022-12-22T06:53:06;26.10;;;9.10;;
18435;SDS011;9346;52.006;4.720;2022-12-22T06:55:34;33.27;;;10.30;;
18435;SDS011;9346;52.006;4.720;2022-12-22T06:58:01;32.57;;;10.37;;
18435;SDS011;9346;52.006;4.720;2022-12-22T07:00:29;41.20;;;10.73;;
18435;SDS011;9346;52.006;4.720;2022-12-22T07:02:56;30.03;;;9.03;;
18435;SDS011;9346;52.006;4.720;2022-12-22T07:05:23;34.40;;;9.67;;
18435;SDS011;9346;52.006;4.720;2022-12-22T07:07:50;35.13;;;10.33;;
18435;SDS011;9346;52.006;4.720;2022-12-22T07:10:20;28.20;;;8.80;;
18435;SDS011;9346;52.006;4.720;2022-12-22T07:13:07;41.93;;;10.97;;
18435;SDS011;9346;52.006;4.720;2022-12-22T07:15:44;40.17;;;11.23;;
18435;SDS011;9346;52.006;4.720;2022-12-22T07:18:11;40.33;;;11.70;;
18435;SDS011;9346;52.006;4.720;2022-12-22T07:20:38;42.13;;;11.77;;
18435;SDS011;9346;52.006;4.720;2022-12-22T07:23:05;36.13;;;11.20;;
18435;SDS011;9346;52.006;4.720;2022-12-22T07:25:34;44.70;;;11.20;;
18435;SDS011;9346;52.006;4.720;2022-12-22T07:28:01;31.63;;;10.10;;
18435;SDS011;9346;52.006;4.720;2022-12-22T07:30:28;28.20;;;9.90;;
18435;SDS011;9346;52.006;4.720;2022-12-22T07:32:55;43.00;;;11.33;;
18435;SDS011;9346;52.006;4.720;2022-12-22T07:35:22;27.43;;;10.77;;
18435;SDS011;9346;52.006;4.720;2022-12-22T07:37:49;41.37;;;10.20;;
18435;SDS011;9346;52.006;4.720;2022-12-22T07:40:16;30.87;;;10.23;;
18435;SDS011;9346;52.006;4.720;2022-12-22T07:42:45;26.33;;;10.57;;
18435;SDS011;9346;52.006;4.720;2022-12-22T07:45:11;34.33;;;10.17;;
18435;SDS011;9346;52.006;4.720;2022-12-22T07:47:38;27.13;;;9.50;;
18435;SDS011;9346;52.006;4.720;2022-12-22T07:50:06;35.50;;;10.97;;
18435;SDS011;9346;52.006;4.720;2022-12-22T07:52:49;21.23;;;9.77;;
18435;SDS011;9346;52.006;4.720;2022-12-22T07:55:17;27.90;;;10.30;;
18435;SDS011;9346;52.006;4.720;2022-12-22T07:57:45;26.77;;;10.57;;
18435;SDS011;9346;52.006;4.720;2022-12-22T08:00:13;30.93;;;10.77;;
18435;SDS011;9346;52.006;4.720;2022-12-22T08:02:41;25.87;;;9.97;;
18435;SDS011;9346;52.006;4.720;2022-12-22T08:05:09;29.13;;;8.67;;
18435;SDS011;9346;52.006;4.720;2022-12-22T08:07:37;26.77;;;8.50;;
18435;SDS011;9346;52.006;4.720;2022-12-22T08:10:04;23.03;;;8.83;;
18435;SDS011;9346;52.006;4.720;2022-12-22T08:12:31;24.47;;;9.73;;
18435;SDS011;9346;52.006;4.720;2022-12-22T08:15:00;24.47;;;9.80;;
18435;SDS011;9346;52.006;4.720;2022-12-22T08:17:27;23.67;;;9.30;;
18435;SDS011;9346;52.006;4.720;2022-12-22T08:19:54;20.40;;;8.30;;
18435;SDS011;9346;52.006;4.720;2022-12-22T08:22:22;25.63;;;8.83;;
18435;SDS011;9346;52.006;4.720;2022-12-22T08:24:49;26.63;;;9.13;;
18435;SDS011;9346;52.006;4.720;2022-12-22T08:27:17;23.27;;;9.97;;
18435;SDS011;9346;52.006;4.720;2022-12-22T08:29:48;24.37;;;7.73;;
18435;SDS011;9346;52.006;4.720;2022-12-22T08:32:22;19.70;;;8.27;;
18435;SDS011;9346;52.006;4.720;2022-12-22T08:34:49;29.10;;;7.73;;
18435;SDS011;9346;52.006;4.720;2022-12-22T08:37:19;21.80;;;9.23;;
18435;SDS011;9346;52.006;4.720;2022-12-22T08:39:49;27.50;;;8.80;;
18435;SDS011;9346;52.006;4.720;2022-12-22T08:42:18;23.27;;;10.90;;
18435;SDS011;9346;52.006;4.720;2022-12-22T08:44:47;21.47;;;11.20;;
18435;SDS011;9346;52.006;4.720;2022-12-22T08:47:17;17.80;;;9.83;;
18435;SDS011;9346;52.006;4.720;2022-12-22T08:49:46;20.90;;;9.83;;
18435;SDS011;9346;52.006;4.720;2022-12-22T08:52:13;25.23;;;9.00;;
18435;SDS011;9346;52.006;4.720;2022-12-22T08:54:41;24.03;;;7.63;;
18435;SDS011;9346;52.006;4.720;2022-12-22T08:57:08;23.40;;;8.60;;
18435;SDS011;9346;52.006;4.720;2022-12-22T08:59:35;20.70;;;7.50;;
18435;SDS011;9346;52.006;4.720;2022-12-22T09:02:02;22.10;;;6.90;;
18435;SDS011;9346;52.006;4.720;2022-12-22T09:04:30;23.80;;;8.30;;
18435;SDS011;9346;52.006;4.720;2022-12-22T09:07:00;18.53;;;7.47;;
18435;SDS011;9346;52.006;4.720;2022-12-22T09:09:30;17.60;;;7.30;;
18435;SDS011;9346;52.006;4.720;2022-12-22T09:11:58;17.23;;;6.80;;
18435;SDS011;9346;52.006;4.720;2022-12-22T09:14:26;14.57;;;6.53;;
18435;SDS011;9346;52.006;4.720;2022-12-22T09:16:53;13.27;;;5.97;;
18435;SDS011;9346;52.006;4.720;2022-12-22T09:19:20;16.73;;;6.97;;
18435;SDS011;9346;52.006;4.720;2022-12-22T09:21:47;14.43;;;6.37;;
18435;SDS011;9346;52.006;4.720;2022-12-22T09:24:16;19.97;;;7.00;;
18435;SDS011;9346;52.006;4.720;2022-12-22T09:26:43;17.07;;;7.10;;
18435;SDS011;9346;52.006;4.720;2022-12-22T09:29:10;16.43;;;6.00;;
18435;SDS011;9346;52.006;4.720;2022-12-22T09:31:39;16.83;;;7.53;;
18435;SDS011;9346;52.006;4.720;2022-12-22T09:34:06;13.10;;;7.17;;
18435;SDS011;9346;52.006;4.720;2022-12-22T09:36:33;14.07;;;6.60;;
18435;SDS011;9346;52.006;4.720;2022-12-22T09:39:03;20.07;;;6.90;;
18435;SDS011;9346;52.006;4.720;2022-12-22T09:41:34;15.20;;;8.07;;
18435;SDS011;9346;52.006;4.720;2022-12-22T09:44:03;11.20;;;6.47;;
18435;SDS011;9346;52.006;4.720;2022-12-22T09:46:33;16.07;;;7.20;;
18435;SDS011;9346;52.006;4.720;2022-12-22T09:49:00;22.07;;;7.17;;
18435;SDS011;9346;52.006;4.720;2022-12-22T09:51:31;12.13;;;7.20;;
18435;SDS011;9346;52.006;4.720;2022-12-22T09:54:04;13.83;;;7.30;;
18435;SDS011;9346;52.006;4.720;2022-12-22T09:56:33;16.13;;;7.17;;
18435;SDS011;9346;52.006;4.720;2022-12-22T09:59:04;17.30;;;8.30;;
18435;SDS011;9346;52.006;4.720;2022-12-22T10:01:38;12.47;;;7.50;;
18435;SDS011;9346;52.006;4.720;2022-12-22T10:04:15;16.10;;;8.10;;
18435;SDS011;9346;52.006;4.720;2022-12-22T10:06:55;13.03;;;7.87;;
18435;SDS011;9346;52.006;4.720;2022-12-22T10:09:28;17.70;;;8.27;;
18435;SDS011;9346;52.006;4.720;2022-12-22T10:11:59;15.13;;;8.03;;
18435;SDS011;9346;52.006;4.720;2022-12-22T10:14:30;21.40;;;8.60;;
18435;SDS011;9346;52.006;4.720;2022-12-22T10:17:16;13.03;;;8.03;;
18435;SDS011;9346;52.006;4.720;2022-12-22T10:19:44;20.33;;;8.00;;
18435;SDS011;9346;52.006;4.720;2022-12-22T10:22:18;11.20;;;6.90;;
18435;SDS011;9346;52.006;4.720;2022-12-22T10:24:50;12.83;;;6.40;;
18435;SDS011;9346;52.006;4.720;2022-12-22T10:27:19;16.47;;;8.17;;
18435;SDS011;9346;52.006;4.720;2022-12-22T10:29:47;13.07;;;7.60;;
18435;SDS011;9346;52.006;4.720;2022-12-22T10:32:15;15.20;;;6.33;;
18435;SDS011;9346;52.006;4.720;2022-12-22T10:34:58;21.97;;;6.93;;
18435;SDS011;9346;52.006;4.720;2022-12-22T10:37:30;20.93;;;6.53;;
18435;SDS011;9346;52.006;4.720;2022-12-22T10:39:58;13.43;;;6.20;;
18435;SDS011;9346;52.006;4.720;2022-12-22T10:42:44;14.57;;;6.13;;
18435;SDS011;9346;52.006;4.720;2022-12-22T10:45:16;12.77;;;5.20;;
18435;SDS011;9346;52.006;4.720;2022-12-22T10:47:45;18.80;;;5.77;;
18435;SDS011;9346;52.006;4.720;2022-12-22T10:50:14;12.90;;;4.90;;
18435;SDS011;9346;52.006;4.720;2022-12-22T10:52:41;15.03;;;5.53;;
18435;SDS011;9346;52.006;4.720;2022-12-22T10:55:17;9.23;;;5.70;;
18435;SDS011;9346;52.006;4.720;2022-12-22T10:57:47;9.23;;;4.70;;
18435;SDS011;9346;52.006;4.720;2022-12-22T11:00:26;18.30;;;5.70;;
18435;SDS011;9346;52.006;4.720;2022-12-22T11:02:54;9.20;;;4.83;;
18435;SDS011;9346;52.006;4.720;2022-12-22T11:05:22;8.90;;;4.87;;
18435;SDS011;9346;52.006;4.720;2022-12-22T11:07:49;9.83;;;4.17;;
18435;SDS011;9346;52.006;4.720;2022-12-22T11:10:18;4.43;;;3.10;;
18435;SDS011;9346;52.006;4.720;2022-12-22T11:12:59;10.50;;;3.93;;
18435;SDS011;9346;52.006;4.720;2022-12-22T11:15:37;5.83;;;3.40;;
18435;SDS011;9346;52.006;4.720;2022-12-22T11:18:13;10.50;;;3.97;;
18435;SDS011;9346;52.006;4.720;2022-12-22T11:20:54;12.87;;;4.63;;
18435;SDS011;9346;52.006;4.720;2022-12-22T11:23:29;9.10;;;5.10;;
18435;SDS011;9346;52.006;4.720;2022-12-22T11:26:05;14.23;;;5.77;;
18435;SDS011;9346;52.006;4.720;2022-12-22T11:28:54;12.07;;;5.93;;
18435;SDS011;9346;52.006;4.720;2022-12-22T11:31:41;11.73;;;6.63;;
18435;SDS011;9346;52.006;4.720;2022-12-22T11:34:23;18.13;;;7.63;;
18435;SDS011;9346;52.006;4.720;2022-12-22T11:37:03;17.50;;;9.60;;
18435;SDS011;9346;52.006;4.720;2022-12-22T11:39:43;23.63;;;9.57;;
18435;SDS011;9346;52.006;4.720;2022-12-22T11:42:22;28.20;;;10.70;;
18435;SDS011;9346;52.006;4.720;2022-12-22T11:45:07;19.20;;;10.00;;
18435;SDS011;9346;52.006;4.720;2022-12-22T11:47:52;19.03;;;8.63;;
18435;SDS011;9346;52.006;4.720;2022-12-22T11:50:28;17.67;;;8.37;;
18435;SDS011;9346;52.006;4.720;2022-12-22T11:53:09;21.00;;;9.63;;
18435;SDS011;9346;52.006;4.720;2022-12-22T11:55:58;23.67;;;8.70;;
18435;SDS011;9346;52.006;4.720;2022-12-22T11:58:40;20.57;;;7.53;;
18435;SDS011;9346;52.006;4.720;2022-12-22T12:01:21;20.97;;;7.80;;
18435;SDS011;9346;52.006;4.720;2022-12-22T12:04:18;21.50;;;8.60;;
18435;SDS011;9346;52.006;4.720;2022-12-22T12:07:11;30.53;;;9.90;;
18435;SDS011;9346;52.006;4.720;2022-12-22T12:09:51;31.33;;;12.30;;
18435;SDS011;9346;52.006;4.720;2022-12-22T12:12:28;22.70;;;11.37;;
18435;SDS011;9346;52.006;4.720;2022-12-22T12:15:13;27.30;;;11.93;;
18435;SDS011;9346;52.006;4.720;2022-12-22T12:17:53;34.70;;;11.43;;
18435;SDS011;9346;52.006;4.720;2022-12-22T12:20:36;30.93;;;12.37;;
18435;SDS011;9346;52.006;4.720;2022-12-22T12:23:24;26.63;;;12.70;;
18435;SDS011;9346;52.006;4.720;2022-12-22T12:26:04;30.13;;;11.90;;
18435;SDS011;9346;52.006;4.720;2022-12-22T12:28:39;30.33;;;11.03;;
18435;SDS011;9346;52.006;4.720;2022-12-22T12:31:14;39.10;;;13.80;;
18435;SDS011;9346;52.006;4.720;2022-12-22T12:33:47;43.37;;;14.27;;
18435;SDS011;9346;52.006;4.720;2022-12-22T12:36:17;38.23;;;14.60;;
18435;SDS011;9346;52.006;4.720;2022-12-22T12:38:53;34.87;;;13.90;;
18435;SDS011;9346;52.006;4.720;2022-12-22T12:41:29;47.37;;;15.80;;
18435;SDS011;9346;52.006;4.720;2022-12-22T12:44:02;39.63;;;14.30;;
18435;SDS011;9346;52.006;4.720;2022-12-22T12:46:44;29.93;;;14.13;;
18435;SDS011;9346;52.006;4.720;2022-12-22T12:55:31;38.23;;;14.27;;
18435;SDS011;9346;52.006;4.720;2022-12-22T12:58:01;44.27;;;14.70;;
18435;SDS011;9346;52.006;4.720;2022-12-22T13:00:42;43.53;;;15.73;;
18435;SDS011;9346;52.006;4.720;2022-12-22T13:03:34;45.67;;;14.90;;
18435;SDS011;9346;52.006;4.720;2022-12-22T13:06:03;47.87;;;15.43;;
18435;SDS011;9346;52.006;4.720;2022-12-22T13:08:34;42.80;;;16.50;;
18435;SDS011;9346;52.006;4.720;2022-12-22T13:11:37;32.30;;;14.27;;
18435;SDS011;9346;52.006;4.720;2022-12-22T13:14:04;36.43;;;13.60;;
18435;SDS011;9346;52.006;4.720;2022-12-22T13:16:32;38.60;;;14.90;;
18435;SDS011;9346;52.006;4.720;2022-12-22T13:19:02;35.73;;;13.33;;
18435;SDS011;9346;52.006;4.720;2022-12-22T13:21:44;35.07;;;15.40;;
18435;SDS011;9346;52.006;4.720;2022-12-22T13:27:03;35.70;;;14.07;;
18435;SDS011;9346;52.006;4.720;2022-12-22T13:29:38;44.17;;;15.77;;
18435;SDS011;9346;52.006;4.720;2022-12-22T13:32:14;37.40;;;13.80;;
18435;SDS011;9346;52.006;4.720;2022-12-22T13:34:47;37.53;;;13.63;;
18435;SDS011;9346;52.006;4.720;2022-12-22T13:37:23;40.30;;;14.10;;
18435;SDS011;9346;52.006;4.720;2022-12-22T13:42:52;37.03;;;14.63;;
18435;SDS011;9346;52.006;4.720;2022-12-22T13:45:32;41.27;;;16.43;;
18435;SDS011;9346;52.006;4.720;2022-12-22T13:48:03;38.80;;;14.63;;
18435;SDS011;9346;52.006;4.720;2022-12-22T13:50:35;37.77;;;16.07;;
18435;SDS011;9346;52.006;4.720;2022-12-22T13:53:05;33.57;;;14.50;;
18435;SDS011;9346;52.006;4.720;2022-12-22T13:55:35;37.13;;;15.67;;
18435;SDS011;9346;52.006;4.720;2022-12-22T13:58:05;36.03;;;15.10;;
18435;SDS011;9346;52.006;4.720;2022-12-22T14:00:34;45.43;;;16.27;;
18435;SDS011;9346;52.006;4.720;2022-12-22T14:03:01;44.53;;;15.73;;
18435;SDS011;9346;52.006;4.720;2022-12-22T14:05:30;47.77;;;16.53;;
18435;SDS011;9346;52.006;4.720;2022-12-22T14:07:58;45.47;;;17.70;;
18435;SDS011;9346;52.006;4.720;2022-12-22T14:10:27;44.40;;;16.87;;
18435;SDS011;9346;52.006;4.720;2022-12-22T14:13:00;44.47;;;18.07;;
18435;SDS011;9346;52.006;4.720;2022-12-22T14:15:31;47.50;;;15.97;;
18435;SDS011;9346;52.006;4.720;2022-12-22T14:17:58;44.50;;;17.67;;
18435;SDS011;9346;52.006;4.720;2022-12-22T14:20:26;46.37;;;17.90;;
18435;SDS011;9346;52.006;4.720;2022-12-22T14:22:57;51.60;;;17.30;;
18435;SDS011;9346;52.006;4.720;2022-12-22T14:25:28;43.97;;;16.83;;
18435;SDS011;9346;52.006;4.720;2022-12-22T14:27:57;47.90;;;18.23;;
18435;SDS011;9346;52.006;4.720;2022-12-22T14:30:29;41.73;;;17.70;;
18435;SDS011;9346;52.006;4.720;2022-12-22T14:33:12;44.67;;;17.63;;
18435;SDS011;9346;52.006;4.720;2022-12-22T14:35:42;52.53;;;18.43;;
18435;SDS011;9346;52.006;4.720;2022-12-22T14:38:15;63.23;;;19.50;;
18435;SDS011;9346;52.006;4.720;2022-12-22T14:40:45;48.37;;;18.07;;
18435;SDS011;9346;52.006;4.720;2022-12-22T14:43:22;41.93;;;18.47;;
18435;SDS011;9346;52.006;4.720;2022-12-22T14:45:59;54.63;;;19.37;;
18435;SDS011;9346;52.006;4.720;2022-12-22T14:48:29;42.00;;;18.27;;
18435;SDS011;9346;52.006;4.720;2022-12-22T14:51:00;48.87;;;19.13;;
18435;SDS011;9346;52.006;4.720;2022-12-22T14:53:35;47.23;;;18.23;;
18435;SDS011;9346;52.006;4.720;2022-12-22T14:56:09;51.13;;;18.60;;
18435;SDS011;9346;52.006;4.720;2022-12-22T14:58:40;54.00;;;20.13;;
18435;SDS011;9346;52.006;4.720;2022-12-22T15:01:13;46.80;;;19.93;;
18435;SDS011;9346;52.006;4.720;2022-12-22T15:03:43;42.67;;;19.73;;
18435;SDS011;9346;52.006;4.720;2022-12-22T15:06:20;45.30;;;20.17;;
18435;SDS011;9346;52.006;4.720;2022-12-22T15:08:51;48.27;;;18.70;;
18435;SDS011;9346;52.006;4.720;2022-12-22T15:11:22;48.20;;;18.37;;
18435;SDS011;9346;52.006;4.720;2022-12-22T15:13:51;55.47;;;20.33;;
18435;SDS011;9346;52.006;4.720;2022-12-22T15:16:19;45.07;;;18.47;;
18435;SDS011;9346;52.006;4.720;2022-12-22T15:18:48;45.67;;;20.00;;
18435;SDS011;9346;52.006;4.720;2022-12-22T15:21:16;47.43;;;20.70;;
18435;SDS011;9346;52.006;4.720;2022-12-22T15:23:45;47.57;;;20.27;;
18435;SDS011;9346;52.006;4.720;2022-12-22T15:26:13;38.63;;;18.90;;
18435;SDS011;9346;52.006;4.720;2022-12-22T15:28:40;46.10;;;18.30;;
18435;SDS011;9346;52.006;4.720;2022-12-22T15:31:11;47.17;;;21.17;;
18435;SDS011;9346;52.006;4.720;2022-12-22T15:33:40;51.13;;;19.40;;